Dart — OUOV2 — position and weather

sailwx.info

Track history (hours):
 
Tides and Currents Weather Stations Pressure Air Temp Water Temp Dewpoint Dewpoint Depression Visibility Wind Speed Wind Dir Waves Ship Positions

Dart

Last reported at 2014-Sep-20 00:33 UTC. Time now 2014-Sep-20 19:59 UTC.
Position N 58°59' E 004°58'.

Length 66 m; draft 3.5 m.

Type: Tanker. MMSI: 219416000.

Date/timePositionNaut miles runAvg speedWind from/ knotsBaromVisibWave heightAir tempDewpointWater temp
2014-Sep-20 00:33N 58°59' E 004°58'9 9.3
2014-Sep-19 23:33N 59°03' E 005°13'9 8.9
2014-Sep-19 22:33N 59°12' E 005°20'10 9.5
2014-Sep-19 21:33N 59°21' E 005°19'3 2.9
2014-Sep-19 20:31N 59°24' E 005°16'3 2.6
2014-Sep-19 19:33N 59°26' E 005°14'1 0.0
2014-Sep-18 21:34N 59°27' E 005°13'2 2.2
2014-Sep-18 20:34N 59°25' E 005°14'0 0.0
2014-Sep-18 19:34N 59°25' E 005°14'0 0.0
2014-Sep-18 18:34N 59°25' E 005°14'0 0.0
2014-Sep-18 17:34N 59°25' E 005°14'0 0.0
2014-Sep-18 16:34N 59°25' E 005°14'0 0.0
2014-Sep-18 15:33N 59°25' E 005°14'0 0.0
2014-Sep-18 14:34N 59°25' E 005°14'0 0.0
2014-Sep-18 13:34N 59°25' E 005°14'0 0.0
2014-Sep-18 12:33N 59°25' E 005°14'0 0.0
2014-Sep-18 11:33N 59°25' E 005°14'0 0.0
2014-Sep-18 10:32N 59°25' E 005°14'0 0.0
2014-Sep-18 09:31N 59°25' E 005°14'0 0.0
2014-Sep-18 08:33N 59°25' E 005°14'0 0.0
2014-Sep-18 07:33N 59°25' E 005°14'0 0.0
2014-Sep-18 06:33N 59°25' E 005°14'0 0.0
2014-Sep-18 05:32N 59°25' E 005°14'0 0.0
2014-Sep-18 04:32N 59°25' E 005°14'0 0.0
2014-Sep-18 03:33N 59°25' E 005°14'0 0.0
2014-Sep-18 02:33N 59°25' E 005°14'0 0.0
2014-Sep-18 01:32N 59°25' E 005°14'8 8.3
2014-Sep-18 00:33N 59°17' E 005°20'10 9.5
2014-Sep-17 23:34N 59°08' E 005°25'9 9.0
2014-Sep-17 22:33N 58°60' E 005°33'10 9.7
2014-Sep-17 21:34N 58°51' E 005°29'1110.4
2014-Sep-17 20:33N 58°40' E 005°24'1211.3
2014-Sep-17 19:31N 58°29' E 005°25'1110.4
2014-Sep-17 18:29N 58°18' E 005°26'1010.3
2014-Sep-17 17:32N 58°08' E 005°25'240 9.1
2014-Sep-16 15:16N 54°09' E 004°57'7 9.4
2014-Sep-16 14:33N 54°02' E 004°56'10 9.5
2014-Sep-16 13:30N 53°52' E 004°54'13 9.7
2014-Sep-16 12:11N 53°39' E 004°50'710.1
2014-Sep-16 11:32N 53°33' E 004°48'1010.3
2014-Sep-16 10:31N 53°23' E 004°41'5711.1
2014-Sep-16 05:24N 52°34' E 003°57'1010.0
2014-Sep-16 04:27N 52°24' E 003°53'9 9.8
2014-Sep-16 03:34N 52°16' E 003°52'10 9.7
2014-Sep-16 02:34N 52°06' E 003°54'7 7.5
2014-Sep-16 01:34N 52°00' E 004°02'1212.4
2014-Sep-16 00:34N 51°54' E 004°19'9 9.0
2014-Sep-15 23:33N 51°50' E 004°32'8 8.0
2014-Sep-15 22:34N 51°42' E 004°37'1 0.8
2014-Sep-15 21:29N 51°42' E 004°36'0 0.0
2014-Sep-15 20:23N 51°42' E 004°36'0 0.0
2014-Sep-15 19:14N 51°42' E 004°36'0 0.0
2014-Sep-15 18:29N 51°42' E 004°36'0 0.0
2014-Sep-15 17:23N 51°42' E 004°36'0 0.0
2014-Sep-15 16:32N 51°42' E 004°36'0 0.0
2014-Sep-15 15:28N 51°42' E 004°36'0 0.0
2014-Sep-15 14:33N 51°42' E 004°36'3 3.3
2014-Sep-15 13:34N 51°45' E 004°38'6 6.3
2014-Sep-15 12:34N 51°50' E 004°31'7 7.1
2014-Sep-15 11:33N 51°52' E 004°20'6 6.3
2014-Sep-15 10:33N 51°56' E 004°13'7 6.9
2014-Sep-15 09:33N 51°59' E 004°03'8 7.6
2014-Sep-15 08:33N 52°01' E 003°51'7 7.1
2014-Sep-15 07:32N 52°08' E 003°46'8 7.7
2014-Sep-15 06:33N 52°15' E 003°47'8 7.6
2014-Sep-15 05:28N 52°23' E 003°49'89 8.7
2014-Sep-14 19:20N 53°45' E 004°46'8 9.2
2014-Sep-14 18:30N 53°52' E 004°51'9 9.4
2014-Sep-14 17:30N 54°01' E 004°56'239 9.5
2014-Sep-13 16:12N 58°00' E 005°09'710.0
2014-Sep-13 15:33N 58°07' E 005°09'29 9.5
2014-Sep-13 12:32N 58°35' E 005°17'10 9.9
2014-Sep-13 11:33N 58°44' E 005°23'9 9.6
2014-Sep-13 10:33N 58°53' E 005°31'4 3.8
2014-Sep-13 09:33N 58°56' E 005°36'0 0.0
2014-Sep-13 08:33N 58°56' E 005°36'0 0.0
2014-Sep-13 07:33N 58°56' E 005°36'0 0.1
2014-Sep-13 06:33N 58°56' E 005°35'0 0.0
2014-Sep-13 05:33N 58°56' E 005°35'0 0.0
2014-Sep-13 04:33N 58°56' E 005°35'0 0.0
2014-Sep-13 03:33N 58°56' E 005°35'0 0.0
2014-Sep-13 02:33N 58°56' E 005°35'1 1.0
2014-Sep-13 01:33N 58°56' E 005°34'6 5.7
2014-Sep-13 00:33N 59°01' E 005°39'1 1.2
2014-Sep-12 23:33N 58°60' E 005°40'0 0.0
2014-Sep-12 22:33N 58°60' E 005°40'0 0.0
2014-Sep-12 21:27N 58°60' E 005°40'0 0.0
2014-Sep-12 20:33N 58°60' E 005°40'0 0.0
2014-Sep-12 19:30N 58°60' E 005°40'0 0.4
2014-Sep-12 18:33N 59°00' E 005°41'4 3.8
2014-Sep-12 17:33N 58°60' E 005°48'7 6.5
2014-Sep-12 16:33N 58°53' E 005°45'0 0.0
2014-Sep-12 15:33N 58°53' E 005°45'0 0.0
2014-Sep-12 14:33N 58°53' E 005°45'0 0.0
2014-Sep-12 13:33N 58°53' E 005°45'0 0.0
2014-Sep-12 12:33N 58°53' E 005°45'0 0.0
2014-Sep-12 11:33N 58°53' E 005°45'0 0.0
2014-Sep-12 10:33N 58°53' E 005°45'0 0.0
2014-Sep-12 09:33N 58°53' E 005°45'0 0.0
2014-Sep-12 08:33N 58°53' E 005°45'0 0.0
2014-Sep-12 07:33N 58°53' E 005°45'0 0.0
2014-Sep-12 06:33N 58°53' E 005°45'2 2.5
2014-Sep-12 05:33N 58°56' E 005°46'6 6.2
2014-Sep-12 04:33N 59°01' E 005°42'9 8.8
2014-Sep-12 03:33N 59°07' E 005°28'8 8.2
2014-Sep-12 02:33N 59°14' E 005°20'  
Track history (hours):
 
Tides and Currents Weather Stations Pressure Air Temp Water Temp Dewpoint Dewpoint Depression Visibility Wind Speed Wind Dir Waves Ship Positions

Dart

Last reported at 2014-Sep-20 00:33 UTC. Time now 2014-Sep-20 19:59 UTC.
Position N 58°59' E 004°58'.

Length 66 m; draft 3.5 m.

Type: Tanker. MMSI: 219416000.

Date/timePositionNaut miles runAvg speedWind from/ knotsBaromVisibWave heightAir tempDewpointWater temp
2014-Sep-20 00:33N 58°59' E 004°58'9 9.3
2014-Sep-19 23:33N 59°03' E 005°13'9 8.9
2014-Sep-19 22:33N 59°12' E 005°20'10 9.5
2014-Sep-19 21:33N 59°21' E 005°19'3 2.9
2014-Sep-19 20:31N 59°24' E 005°16'3 2.6
2014-Sep-19 19:33N 59°26' E 005°14'1 0.0
2014-Sep-18 21:34N 59°27' E 005°13'2 2.2
2014-Sep-18 20:34N 59°25' E 005°14'0 0.0
2014-Sep-18 19:34N 59°25' E 005°14'0 0.0
2014-Sep-18 18:34N 59°25' E 005°14'0 0.0
2014-Sep-18 17:34N 59°25' E 005°14'0 0.0
2014-Sep-18 16:34N 59°25' E 005°14'0 0.0
2014-Sep-18 15:33N 59°25' E 005°14'0 0.0
2014-Sep-18 14:34N 59°25' E 005°14'0 0.0
2014-Sep-18 13:34N 59°25' E 005°14'0 0.0
2014-Sep-18 12:33N 59°25' E 005°14'0 0.0
2014-Sep-18 11:33N 59°25' E 005°14'0 0.0
2014-Sep-18 10:32N 59°25' E 005°14'0 0.0
2014-Sep-18 09:31N 59°25' E 005°14'0 0.0
2014-Sep-18 08:33N 59°25' E 005°14'0 0.0
2014-Sep-18 07:33N 59°25' E 005°14'0 0.0
2014-Sep-18 06:33N 59°25' E 005°14'0 0.0
2014-Sep-18 05:32N 59°25' E 005°14'0 0.0
2014-Sep-18 04:32N 59°25' E 005°14'0 0.0
2014-Sep-18 03:33N 59°25' E 005°14'0 0.0
2014-Sep-18 02:33N 59°25' E 005°14'0 0.0
2014-Sep-18 01:32N 59°25' E 005°14'8 8.3
2014-Sep-18 00:33N 59°17' E 005°20'10 9.5
2014-Sep-17 23:34N 59°08' E 005°25'9 9.0
2014-Sep-17 22:33N 58°60' E 005°33'10 9.7
2014-Sep-17 21:34N 58°51' E 005°29'1110.4
2014-Sep-17 20:33N 58°40' E 005°24'1211.3
2014-Sep-17 19:31N 58°29' E 005°25'1110.4
2014-Sep-17 18:29N 58°18' E 005°26'1010.3
2014-Sep-17 17:32N 58°08' E 005°25'240 9.1
2014-Sep-16 15:16N 54°09' E 004°57'7 9.4
2014-Sep-16 14:33N 54°02' E 004°56'10 9.5
2014-Sep-16 13:30N 53°52' E 004°54'13 9.7
2014-Sep-16 12:11N 53°39' E 004°50'710.1
2014-Sep-16 11:32N 53°33' E 004°48'1010.3
2014-Sep-16 10:31N 53°23' E 004°41'5711.1
2014-Sep-16 05:24N 52°34' E 003°57'1010.0
2014-Sep-16 04:27N 52°24' E 003°53'9 9.8
2014-Sep-16 03:34N 52°16' E 003°52'10 9.7
2014-Sep-16 02:34N 52°06' E 003°54'7 7.5
2014-Sep-16 01:34N 52°00' E 004°02'1212.4
2014-Sep-16 00:34N 51°54' E 004°19'9 9.0
2014-Sep-15 23:33N 51°50' E 004°32'8 8.0
2014-Sep-15 22:34N 51°42' E 004°37'1 0.8
2014-Sep-15 21:29N 51°42' E 004°36'0 0.0
2014-Sep-15 20:23N 51°42' E 004°36'0 0.0
2014-Sep-15 19:14N 51°42' E 004°36'0 0.0
2014-Sep-15 18:29N 51°42' E 004°36'0 0.0
2014-Sep-15 17:23N 51°42' E 004°36'0 0.0
2014-Sep-15 16:32N 51°42' E 004°36'0 0.0
2014-Sep-15 15:28N 51°42' E 004°36'0 0.0
2014-Sep-15 14:33N 51°42' E 004°36'3 3.3
2014-Sep-15 13:34N 51°45' E 004°38'6 6.3
2014-Sep-15 12:34N 51°50' E 004°31'7 7.1
2014-Sep-15 11:33N 51°52' E 004°20'6 6.3
2014-Sep-15 10:33N 51°56' E 004°13'7 6.9
2014-Sep-15 09:33N 51°59' E 004°03'8 7.6
2014-Sep-15 08:33N 52°01' E 003°51'7 7.1
2014-Sep-15 07:32N 52°08' E 003°46'8 7.7
2014-Sep-15 06:33N 52°15' E 003°47'8 7.6
2014-Sep-15 05:28N 52°23' E 003°49'89 8.7
2014-Sep-14 19:20N 53°45' E 004°46'8 9.2
2014-Sep-14 18:30N 53°52' E 004°51'9 9.4
2014-Sep-14 17:30N 54°01' E 004°56'239 9.5
2014-Sep-13 16:12N 58°00' E 005°09'710.0
2014-Sep-13 15:33N 58°07' E 005°09'29 9.5
2014-Sep-13 12:32N 58°35' E 005°17'10 9.9
2014-Sep-13 11:33N 58°44' E 005°23'9 9.6
2014-Sep-13 10:33N 58°53' E 005°31'4 3.8
2014-Sep-13 09:33N 58°56' E 005°36'0 0.0
2014-Sep-13 08:33N 58°56' E 005°36'0 0.0
2014-Sep-13 07:33N 58°56' E 005°36'0 0.1
2014-Sep-13 06:33N 58°56' E 005°35'0 0.0
2014-Sep-13 05:33N 58°56' E 005°35'0 0.0
2014-Sep-13 04:33N 58°56' E 005°35'0 0.0
2014-Sep-13 03:33N 58°56' E 005°35'0 0.0
2014-Sep-13 02:33N 58°56' E 005°35'1 1.0
2014-Sep-13 01:33N 58°56' E 005°34'6 5.7
2014-Sep-13 00:33N 59°01' E 005°39'1 1.2
2014-Sep-12 23:33N 58°60' E 005°40'0 0.0
2014-Sep-12 22:33N 58°60' E 005°40'0 0.0
2014-Sep-12 21:27N 58°60' E 005°40'0 0.0
2014-Sep-12 20:33N 58°60' E 005°40'0 0.0
2014-Sep-12 19:30N 58°60' E 005°40'0 0.4
2014-Sep-12 18:33N 59°00' E 005°41'4 3.8
2014-Sep-12 17:33N 58°60' E 005°48'7 6.5
2014-Sep-12 16:33N 58°53' E 005°45'0 0.0
2014-Sep-12 15:33N 58°53' E 005°45'0 0.0
2014-Sep-12 14:33N 58°53' E 005°45'0 0.0
2014-Sep-12 13:33N 58°53' E 005°45'0 0.0
2014-Sep-12 12:33N 58°53' E 005°45'0 0.0
2014-Sep-12 11:33N 58°53' E 005°45'0 0.0
2014-Sep-12 10:33N 58°53' E 005°45'0 0.0
2014-Sep-12 09:33N 58°53' E 005°45'0 0.0
2014-Sep-12 08:33N 58°53' E 005°45'0 0.0
2014-Sep-12 07:33N 58°53' E 005°45'0 0.0
2014-Sep-12 06:33N 58°53' E 005°45'2 2.5
2014-Sep-12 05:33N 58°56' E 005°46'6 6.2
2014-Sep-12 04:33N 59°01' E 005°42'9 8.8
2014-Sep-12 03:33N 59°07' E 005°28'8 8.2
2014-Sep-12 02:33N 59°14' E 005°20'  

Dump ship's entire track history